Zim Vancouver — A8LK5 — position and weather

sailwx.info

Track history (hours):
 
Tides and Currents Weather Stations Pressure Air Temp Water Temp Dewpoint Dewpoint Depression Visibility Wind Speed Wind Dir Waves Ship Positions

Zim Vancouver

Last reported at 2014-Dec-22 15:33 UTC. Time now 2014-Dec-23 00:11 UTC.
Position N 22°08' E 114°31'.

Length 260 m; draft 10.3 m.

Type: Ship. MMSI: 636013214.

Date/timePositionNaut miles runAvg speedWind from/ knotsBaromVisibWave heightAir tempDewpointWater temp
2014-Dec-22 15:33N 22°08' E 114°31'1414.1
2014-Dec-22 14:32N 22°07' E 114°15'1210.3
2014-Dec-22 13:22N 22°16' E 114°06'1110.5
2014-Dec-22 12:18N 22°21' E 113°56'6 8.6
2014-Dec-22 11:33N 22°27' E 113°53'2 0.2
2014-Dec-21 22:32N 22°25' E 113°53'9 8.4
2014-Dec-21 21:27N 22°21' E 114°02'1210.5
2014-Dec-21 20:21N 22°12' E 114°11'7 6.6
2014-Dec-21 19:13N 22°09' E 114°18'5 6.7
2014-Dec-21 18:33N 22°09' E 114°22'  
2014-Dec-17 12:33N 01°16' E 104°10'1514.6
2014-Dec-17 11:33N 01°13' E 103°56'7812.8
2014-Dec-17 05:29N 01°40' E 102°43'1414.7
2014-Dec-17 04:33N 01°46' E 102°31'  
Track history (hours):
 
Tides and Currents Weather Stations Pressure Air Temp Water Temp Dewpoint Dewpoint Depression Visibility Wind Speed Wind Dir Waves Ship Positions

Zim Vancouver

Last reported at 2014-Dec-22 15:33 UTC. Time now 2014-Dec-23 00:11 UTC.
Position N 22°08' E 114°31'.

Length 260 m; draft 10.3 m.

Type: Ship. MMSI: 636013214.

Date/timePositionNaut miles runAvg speedWind from/ knotsBaromVisibWave heightAir tempDewpointWater temp
2014-Dec-22 15:33N 22°08' E 114°31'1414.1
2014-Dec-22 14:32N 22°07' E 114°15'1210.3
2014-Dec-22 13:22N 22°16' E 114°06'1110.5
2014-Dec-22 12:18N 22°21' E 113°56'6 8.6
2014-Dec-22 11:33N 22°27' E 113°53'2 0.2
2014-Dec-21 22:32N 22°25' E 113°53'9 8.4
2014-Dec-21 21:27N 22°21' E 114°02'1210.5
2014-Dec-21 20:21N 22°12' E 114°11'7 6.6
2014-Dec-21 19:13N 22°09' E 114°18'5 6.7
2014-Dec-21 18:33N 22°09' E 114°22'  
2014-Dec-17 12:33N 01°16' E 104°10'1514.6
2014-Dec-17 11:33N 01°13' E 103°56'7812.8
2014-Dec-17 05:29N 01°40' E 102°43'1414.7
2014-Dec-17 04:33N 01°46' E 102°31'  

Dump ship's entire track history